createdAt,value
2019-03-24T00:01:40.711Z,20.35
2019-03-24T00:06:29.149Z,20.15
2019-03-24T00:08:57.605Z,21.65
2019-03-24T00:11:28.707Z,22.67
2019-03-24T00:13:57.404Z,21.37
2019-03-24T00:16:25.838Z,21.65
2019-03-24T00:18:54.292Z,20.65
2019-03-24T00:21:22.988Z,20.90
2019-03-24T00:23:51.521Z,19.85
2019-03-24T00:26:20.208Z,21.57
2019-03-24T00:28:48.955Z,21.00
2019-03-24T00:31:17.449Z,20.23
2019-03-24T00:33:46.162Z,21.30
2019-03-24T00:36:14.849Z,20.70
2019-03-24T00:38:43.318Z,21.68
2019-03-24T00:41:11.762Z,21.65
2019-03-24T00:43:40.250Z,20.62
2019-03-24T00:46:08.927Z,20.30
2019-03-24T00:48:37.371Z,20.55
2019-03-24T00:51:05.907Z,20.95
2019-03-24T00:53:34.509Z,20.52
2019-03-24T00:56:03.213Z,21.85
2019-03-24T00:58:31.651Z,20.70
2019-03-24T01:01:00.186Z,21.07
2019-03-24T01:03:28.879Z,20.85
2019-03-24T01:05:57.621Z,20.65
2019-03-24T01:08:26.060Z,21.02
2019-03-24T01:10:54.767Z,22.87
2019-03-24T01:13:23.278Z,21.52
2019-03-24T01:15:51.717Z,20.45
2019-03-24T01:18:20.179Z,20.77
2019-03-24T01:20:48.614Z,20.90
2019-03-24T01:23:17.076Z,18.90
2019-03-24T01:25:45.514Z,19.12
2019-03-24T01:28:13.948Z,18.80
2019-03-24T01:30:42.412Z,20.50
2019-03-24T01:33:11.101Z,20.05
2019-03-24T01:35:39.556Z,20.90
2019-03-24T01:38:07.989Z,19.42
2019-03-24T01:40:36.515Z,21.05
2019-03-24T01:43:05.296Z,22.00
2019-03-24T01:45:33.762Z,20.23
2019-03-24T01:48:02.201Z,18.95
2019-03-24T01:50:30.908Z,19.35
2019-03-24T01:52:59.352Z,20.08
2019-03-24T01:55:28.079Z,20.25
2019-03-24T01:57:56.764Z,18.90
2019-03-24T02:00:25.209Z,20.70
2019-03-24T02:02:53.661Z,21.02
2019-03-24T02:05:22.359Z,20.65
2019-03-24T02:07:50.803Z,20.75
2019-03-24T02:10:22.367Z,20.30
2019-03-24T02:12:50.821Z,20.72
2019-03-24T02:15:19.257Z,20.65
2019-03-24T02:17:48.007Z,21.30
2019-03-24T02:20:16.845Z,20.80
2019-03-24T02:22:45.538Z,21.33
2019-03-24T02:25:14.308Z,23.07
2019-03-24T02:27:43.009Z,23.27
2019-03-24T02:30:12.077Z,23.10
2019-03-24T02:32:40.517Z,20.60
2019-03-24T02:35:09.703Z,19.20
2019-03-24T02:37:38.196Z,20.17
2019-03-24T02:40:08.501Z,21.55
2019-03-24T02:42:37.006Z,23.10
2019-03-24T02:45:07.466Z,23.75
2019-03-24T02:47:36.224Z,24.82
2019-03-24T02:50:06.568Z,22.05
2019-03-24T02:52:35.344Z,21.62
2019-03-24T02:55:08.585Z,20.75
2019-03-24T02:57:37.298Z,20.00
2019-03-24T03:00:08.947Z,21.07
2019-03-24T03:02:37.796Z,21.05
2019-03-24T03:05:08.030Z,19.20
2019-03-24T03:07:36.757Z,20.85
2019-03-24T03:10:09.763Z,21.02
2019-03-24T03:12:38.298Z,21.42
2019-03-24T03:15:09.361Z,20.52
2019-03-24T03:17:37.821Z,21.97
2019-03-24T03:20:07.416Z,22.20
2019-03-24T03:22:36.174Z,21.50
2019-03-24T03:25:08.102Z,21.20
2019-03-24T03:27:36.598Z,21.20
2019-03-24T03:30:07.586Z,21.82
2019-03-24T03:32:36.185Z,22.70
2019-03-24T03:35:07.556Z,20.32
2019-03-24T03:37:36.289Z,19.87
2019-03-24T03:40:06.947Z,18.98
2019-03-24T03:42:35.685Z,20.32
2019-03-24T03:45:05.471Z,20.57
2019-03-24T03:47:34.238Z,19.65
2019-03-24T03:50:02.970Z,20.72
2019-03-24T03:52:31.488Z,20.02
2019-03-24T03:54:59.966Z,20.92
2019-03-24T03:57:28.442Z,18.20
2019-03-24T03:59:57.242Z,20.25
2019-03-24T04:02:26.250Z,22.25
2019-03-24T04:04:54.681Z,18.82
2019-03-24T04:07:23.464Z,19.42
2019-03-24T04:09:51.910Z,18.57
2019-03-24T04:12:20.609Z,18.73
2019-03-24T04:14:49.311Z,19.15
2019-03-24T04:17:17.777Z,17.52
2019-03-24T04:19:46.290Z,19.77
2019-03-24T04:22:14.754Z,18.57
2019-03-24T04:24:43.197Z,19.02
2019-03-24T04:27:11.653Z,19.80
2019-03-24T04:29:40.342Z,20.05
2019-03-24T04:32:08.807Z,19.70
2019-03-24T04:34:37.288Z,19.32
2019-03-24T04:37:05.841Z,20.20
2019-03-24T04:39:34.539Z,19.90
2019-03-24T04:42:02.990Z,20.62
2019-03-24T04:44:31.698Z,19.87
2019-03-24T04:47:00.147Z,19.42
2019-03-24T04:49:28.667Z,21.37
2019-03-24T04:51:57.373Z,21.60
2019-03-24T04:54:26.118Z,21.00
2019-03-24T04:56:54.552Z,22.60
2019-03-24T04:59:23.278Z,20.05
2019-03-24T05:01:51.978Z,18.73
2019-03-24T05:04:20.698Z,19.30
2019-03-24T05:06:49.460Z,18.27
2019-03-24T05:09:18.356Z,19.42
2019-03-24T05:11:46.806Z,18.37
2019-03-24T05:14:15.506Z,20.30
2019-03-24T05:16:44.225Z,20.08
2019-03-24T05:19:12.932Z,20.08
2019-03-24T05:21:41.397Z,22.00
2019-03-24T05:24:09.849Z,21.68
2019-03-24T05:26:38.305Z,21.02
2019-03-24T05:29:06.736Z,21.77
2019-03-24T05:31:35.457Z,21.95
2019-03-24T05:34:03.908Z,23.02
2019-03-24T05:36:32.639Z,23.27
2019-03-24T05:39:01.072Z,22.13
2019-03-24T05:41:29.540Z,23.60
2019-03-24T05:43:57.982Z,24.47
2019-03-24T05:46:26.713Z,21.57
2019-03-24T05:48:55.231Z,20.15
2019-03-24T05:51:23.670Z,19.45
2019-03-24T05:53:52.398Z,20.57
2019-03-24T05:56:21.094Z,20.32
2019-03-24T05:58:49.829Z,21.93
2019-03-24T06:01:18.285Z,22.17
2019-03-24T06:03:47.004Z,22.00
2019-03-24T06:06:15.454Z,22.20
2019-03-24T06:08:43.970Z,22.27
2019-03-24T06:11:12.408Z,23.95
2019-03-24T06:13:41.140Z,23.25
2019-03-24T06:16:09.578Z,23.65
2019-03-24T06:18:38.272Z,24.12
2019-03-24T06:21:07.065Z,22.13
2019-03-24T06:23:35.502Z,22.67
2019-03-24T06:26:04.043Z,23.38
2019-03-24T06:28:32.543Z,24.25
2019-03-24T06:31:01.817Z,23.95
2019-03-24T06:33:30.544Z,24.45
2019-03-24T06:35:59.015Z,25.60
2019-03-24T06:38:27.466Z,24.40
2019-03-24T06:40:55.936Z,24.65
2019-03-24T06:43:24.437Z,26.95
2019-03-24T06:45:52.873Z,26.37
2019-03-24T06:48:21.606Z,29.25
2019-03-24T06:50:50.326Z,29.57
2019-03-24T06:53:18.780Z,27.65
2019-03-24T06:55:47.215Z,29.90
2019-03-24T06:58:15.675Z,31.62
2019-03-24T07:00:44.381Z,32.88
2019-03-24T07:03:12.898Z,33.73
2019-03-24T07:05:41.616Z,33.10
2019-03-24T07:08:10.366Z,36.60
2019-03-24T07:10:38.817Z,36.30
2019-03-24T07:13:07.255Z,35.40
2019-03-24T07:15:35.980Z,36.38
2019-03-24T07:18:08.722Z,35.60
2019-03-24T07:20:34.982Z,36.30
2019-03-24T07:23:03.413Z,35.10
2019-03-24T07:25:32.117Z,33.23
2019-03-24T07:28:00.574Z,37.03
2019-03-24T07:30:29.053Z,35.28
2019-03-24T07:32:57.561Z,37.03
2019-03-24T07:35:26.293Z,36.03
2019-03-24T07:37:55.003Z,37.10
2019-03-24T07:40:23.768Z,35.85
2019-03-24T07:42:52.492Z,35.45
2019-03-24T07:45:20.929Z,34.75
2019-03-24T07:47:49.701Z,35.78
2019-03-24T07:50:18.393Z,37.33
2019-03-24T07:52:46.868Z,36.28
2019-03-24T07:55:15.305Z,35.00
2019-03-24T07:57:44.036Z,35.83
2019-03-24T08:00:12.924Z,36.63
2019-03-24T08:02:51.209Z,35.33
2019-03-24T08:05:19.954Z,38.78
2019-03-24T08:07:48.479Z,38.08
2019-03-24T08:10:16.942Z,38.35
2019-03-24T08:12:45.554Z,38.30
2019-03-24T08:15:14.162Z,38.20
2019-03-24T08:17:42.605Z,37.55
2019-03-24T08:20:12.408Z,38.02
2019-03-24T08:22:40.977Z,36.45
2019-03-24T08:25:10.020Z,39.40
2019-03-24T08:27:38.513Z,36.23
2019-03-24T08:30:09.104Z,38.60
2019-03-24T08:32:37.564Z,39.10
2019-03-24T08:35:06.950Z,36.28
2019-03-24T08:37:35.744Z,36.65
2019-03-24T08:40:06.873Z,36.98
2019-03-24T08:42:35.675Z,36.25
2019-03-24T08:45:04.855Z,32.67
2019-03-24T08:47:33.322Z,36.98
2019-03-24T08:50:01.789Z,36.10
2019-03-24T08:52:30.527Z,37.30
2019-03-24T08:54:59.985Z,34.25
2019-03-24T08:57:28.598Z,32.10
2019-03-24T08:59:57.683Z,33.08
2019-03-24T09:02:26.124Z,34.27
2019-03-24T09:04:54.599Z,34.13
2019-03-24T09:07:23.044Z,32.63
2019-03-24T09:09:51.782Z,33.50
2019-03-24T09:12:20.491Z,33.18
2019-03-24T09:14:49.316Z,31.33
2019-03-24T09:17:17.820Z,32.42
2019-03-24T09:19:46.276Z,31.77
2019-03-24T09:22:14.723Z,33.95
2019-03-24T09:24:43.446Z,32.73
2019-03-24T09:27:11.874Z,33.28
2019-03-24T09:29:40.349Z,32.65
2019-03-24T09:32:08.792Z,32.45
2019-03-24T09:34:37.228Z,31.87
2019-03-24T09:37:05.703Z,29.80
2019-03-24T09:39:34.152Z,33.00
2019-03-24T09:42:02.630Z,33.02
2019-03-24T09:44:31.066Z,34.45
2019-03-24T09:46:59.565Z,33.02
2019-03-24T09:49:28.016Z,34.53
2019-03-24T09:51:56.473Z,33.50
2019-03-24T09:54:24.958Z,33.63
2019-03-24T09:56:53.744Z,34.00
2019-03-24T09:59:22.461Z,34.48
2019-03-24T10:01:50.935Z,34.33
2019-03-24T10:04:19.636Z,34.70
2019-03-24T10:06:48.086Z,34.73
2019-03-24T10:12:45.541Z,33.13
2019-03-24T10:15:14.310Z,35.28
2019-03-24T10:17:42.855Z,35.35
2019-03-24T10:20:11.441Z,34.75
2019-03-24T10:22:39.983Z,34.80
2019-03-24T10:25:08.524Z,35.25
2019-03-24T10:27:36.969Z,35.05
2019-03-24T10:30:08.166Z,34.63
2019-03-24T10:32:36.880Z,34.65
2019-03-24T10:35:06.950Z,33.95
2019-03-24T10:37:35.638Z,32.53
2019-03-24T10:40:05.449Z,32.67
2019-03-24T10:42:34.178Z,32.13
2019-03-24T10:45:02.702Z,32.28
2019-03-24T10:47:31.147Z,32.88
2019-03-24T10:49:59.872Z,32.38
2019-03-24T10:52:28.654Z,33.33
2019-03-24T10:54:57.373Z,33.15
2019-03-24T10:57:25.901Z,33.80
2019-03-24T10:59:54.382Z,33.23
2019-03-24T11:02:23.110Z,32.45
2019-03-24T11:04:51.556Z,32.75
2019-03-24T11:07:20.450Z,32.15
2019-03-24T11:09:48.888Z,33.18
2019-03-24T11:12:17.369Z,30.62
2019-03-24T11:14:46.079Z,32.35
2019-03-24T11:17:14.790Z,34.10
2019-03-24T11:19:43.484Z,33.90
2019-03-24T11:22:11.960Z,33.02
2019-03-24T11:24:40.403Z,34.58
2019-03-24T11:27:08.924Z,34.63
2019-03-24T11:29:37.657Z,32.13
2019-03-24T11:32:06.099Z,31.40
2019-03-24T11:34:34.827Z,34.05
2019-03-24T11:37:03.262Z,34.13
2019-03-24T11:39:31.725Z,36.10
2019-03-24T11:42:00.437Z,35.00
2019-03-24T11:44:28.904Z,33.25
2019-03-24T11:46:57.637Z,32.65
2019-03-24T11:49:26.135Z,33.50
2019-03-24T11:51:54.578Z,33.10
2019-03-24T11:54:23.264Z,34.63
2019-03-24T11:56:51.724Z,34.63
2019-03-24T11:59:20.174Z,33.15
2019-03-24T12:01:48.721Z,31.27
2019-03-24T12:04:17.233Z,32.45
2019-03-24T12:06:45.966Z,34.20
2019-03-24T12:09:14.665Z,32.03
2019-03-24T12:11:43.122Z,32.75
2019-03-24T12:14:11.564Z,33.55
2019-03-24T12:16:40.303Z,33.25
2019-03-24T12:19:09.010Z,33.23
2019-03-24T12:21:37.739Z,31.37
2019-03-24T12:24:06.184Z,33.10
2019-03-24T12:26:34.628Z,31.23
2019-03-24T12:29:03.110Z,30.65
2019-03-24T12:31:31.810Z,30.27
2019-03-24T12:34:00.273Z,30.68
2019-03-24T12:36:28.729Z,31.42
2019-03-24T12:38:57.447Z,30.15
2019-03-24T12:41:26.133Z,29.20
2019-03-24T12:43:57.562Z,29.18
2019-03-24T12:46:26.019Z,30.17
2019-03-24T12:48:54.760Z,31.02
2019-03-24T12:51:29.378Z,30.30
2019-03-24T12:53:57.816Z,29.80
2019-03-24T12:56:26.548Z,30.37
2019-03-24T12:58:54.992Z,28.70
2019-03-24T13:01:23.436Z,30.15
2019-03-24T13:03:51.886Z,31.23
2019-03-24T13:06:21.656Z,31.00
2019-03-24T13:08:50.120Z,31.65
2019-03-24T13:11:18.899Z,27.40
2019-03-24T13:13:47.349Z,28.77
2019-03-24T13:16:15.817Z,27.67
2019-03-24T13:18:44.534Z,29.77
2019-03-24T13:21:13.296Z,31.07
2019-03-24T13:23:41.762Z,30.35
2019-03-24T13:26:10.474Z,29.45
2019-03-24T13:28:38.946Z,29.12
2019-03-24T13:31:07.388Z,28.23
2019-03-24T13:33:35.840Z,29.92
2019-03-24T13:36:06.232Z,28.17
2019-03-24T13:38:37.440Z,27.27
2019-03-24T13:41:06.152Z,29.50
2019-03-24T13:43:34.609Z,29.77
2019-03-24T13:46:03.119Z,29.77
2019-03-24T13:48:31.568Z,28.55
2019-03-24T13:51:00.276Z,30.27
2019-03-24T13:53:28.719Z,29.32
2019-03-24T13:55:57.176Z,27.27
2019-03-24T13:58:25.883Z,28.62
2019-03-24T14:00:54.337Z,28.52
2019-03-24T14:03:22.781Z,27.87
2019-03-24T14:05:51.484Z,28.32
2019-03-24T14:08:19.920Z,26.93
2019-03-24T14:10:48.386Z,26.27
2019-03-24T14:13:17.086Z,27.67
2019-03-24T14:15:45.540Z,25.68
2019-03-24T14:18:14.250Z,25.00
2019-03-24T14:20:43.977Z,24.10
2019-03-24T14:23:12.742Z,24.82
2019-03-24T14:25:41.452Z,24.10
2019-03-24T14:28:10.758Z,23.60
2019-03-24T14:30:44.437Z,23.15
2019-03-24T14:33:12.970Z,23.65
2019-03-24T14:35:41.857Z,23.10
2019-03-24T14:38:10.316Z,22.93
2019-03-24T14:40:38.775Z,24.75
2019-03-24T14:43:07.294Z,24.25
2019-03-24T14:45:35.728Z,24.77
2019-03-24T14:48:04.638Z,23.55
2019-03-24T14:50:33.333Z,22.52
2019-03-24T14:53:02.066Z,22.87
2019-03-24T14:55:35.108Z,24.43
2019-03-24T14:58:03.884Z,23.85
2019-03-24T15:00:42.996Z,23.18
2019-03-24T15:03:11.888Z,23.98
2019-03-24T15:05:40.726Z,23.95
2019-03-24T15:08:10.102Z,23.75
2019-03-24T15:10:38.808Z,23.87
2019-03-24T15:13:07.383Z,23.02
2019-03-24T15:15:36.098Z,21.93
2019-03-24T15:18:04.608Z,22.20
2019-03-24T15:20:33.126Z,22.40
2019-03-24T15:23:05.115Z,19.60
2019-03-24T15:25:33.581Z,18.98
2019-03-24T15:28:02.296Z,17.23
2019-03-24T15:30:30.751Z,16.02
2019-03-24T15:32:59.190Z,16.00
2019-03-24T15:35:27.658Z,15.88
2019-03-24T15:38:06.894Z,15.05
2019-03-24T15:40:26.542Z,16.75
2019-03-24T15:42:55.236Z,16.67
2019-03-24T15:45:24.051Z,17.10
2019-03-24T15:47:55.430Z,17.00
2019-03-24T15:50:24.129Z,16.70
2019-03-24T15:52:52.591Z,17.42
2019-03-24T15:55:21.307Z,16.95
2019-03-24T15:57:49.766Z,17.12
2019-03-24T16:00:21.541Z,16.65
2019-03-24T16:02:50.097Z,16.00
2019-03-24T16:05:18.537Z,15.25
2019-03-24T16:07:47.331Z,15.68
2019-03-24T16:10:16.657Z,14.38
2019-03-24T16:12:45.384Z,21.48
2019-03-24T16:15:13.974Z,29.63
2019-03-24T16:17:42.426Z,28.25
2019-03-24T16:20:11.136Z,32.20
2019-03-24T16:22:39.843Z,30.70
2019-03-24T16:25:08.708Z,33.58
2019-03-24T16:27:37.166Z,34.53
2019-03-24T16:30:08.139Z,34.15
2019-03-24T16:32:36.658Z,42.13
2019-03-24T16:35:06.531Z,47.53
2019-03-24T16:37:35.132Z,46.10
2019-03-24T16:40:05.461Z,46.95
2019-03-24T16:42:34.152Z,45.05
2019-03-24T16:45:02.596Z,47.62
2019-03-24T16:47:31.305Z,46.28
2019-03-24T16:50:02.496Z,46.08
2019-03-24T16:52:31.294Z,44.95
2019-03-24T16:55:00.006Z,45.80
2019-03-24T16:57:28.475Z,46.90
2019-03-24T16:59:56.908Z,43.25
2019-03-24T17:02:25.369Z,45.58
2019-03-24T17:04:53.823Z,44.50
2019-03-24T17:07:22.520Z,43.42
2019-03-24T17:09:51.216Z,44.80
2019-03-24T17:12:19.709Z,46.15
2019-03-24T17:14:48.423Z,43.60
2019-03-24T17:17:16.933Z,44.23
2019-03-24T17:19:45.704Z,46.10
2019-03-24T17:22:14.213Z,44.00
2019-03-24T17:24:42.814Z,44.50
2019-03-24T17:27:11.515Z,44.67
2019-03-24T17:29:40.126Z,43.83
2019-03-24T17:32:08.583Z,43.30
2019-03-24T17:34:37.366Z,43.05
2019-03-24T17:37:06.171Z,44.65
2019-03-24T17:39:34.899Z,43.30
2019-03-24T17:42:05.525Z,43.13
2019-03-24T17:44:34.052Z,44.60
2019-03-24T17:47:02.507Z,42.95
2019-03-24T17:49:30.977Z,44.65
2019-03-24T17:52:00.974Z,45.78
2019-03-24T17:54:29.770Z,43.45
2019-03-24T17:56:58.782Z,44.03
2019-03-24T17:59:27.701Z,46.00
2019-03-24T18:01:56.234Z,45.83
2019-03-24T18:04:25.053Z,45.65
2019-03-24T18:06:53.887Z,44.83
2019-03-24T18:09:22.326Z,44.25
2019-03-24T18:11:50.781Z,44.08
2019-03-24T18:14:19.226Z,43.40
2019-03-24T18:16:47.684Z,44.63
2019-03-24T18:19:16.593Z,46.35
2019-03-24T18:21:48.813Z,45.88
2019-03-24T18:24:18.156Z,46.55
2019-03-24T18:26:46.905Z,44.48
2019-03-24T18:29:15.619Z,46.80
2019-03-24T18:31:44.315Z,45.63
2019-03-24T18:34:19.030Z,46.35
2019-03-24T18:36:47.489Z,44.95
2019-03-24T18:39:16.202Z,44.70
2019-03-24T18:41:44.644Z,47.00
2019-03-24T18:44:13.399Z,46.08
2019-03-24T18:46:41.849Z,46.18
2019-03-24T18:49:10.626Z,48.48
2019-03-24T18:51:44.798Z,48.17
2019-03-24T18:54:13.245Z,46.42
2019-03-24T18:56:41.708Z,46.50
2019-03-24T18:59:10.164Z,45.78
2019-03-24T19:01:38.640Z,45.10
2019-03-24T19:04:07.080Z,44.88
2019-03-24T19:06:35.793Z,44.83
2019-03-24T19:09:07.245Z,46.45
2019-03-24T19:11:45.039Z,45.65
2019-03-24T19:14:14.577Z,44.67
2019-03-24T19:16:43.016Z,44.42
2019-03-24T19:19:11.723Z,44.93
2019-03-24T19:21:40.426Z,43.75
2019-03-24T19:24:09.141Z,45.48
2019-03-24T19:26:37.849Z,45.98
2019-03-24T19:29:06.321Z,45.35
2019-03-24T19:31:35.196Z,46.45
2019-03-24T19:34:03.652Z,45.52
2019-03-24T19:36:34.436Z,44.60
2019-03-24T19:39:03.144Z,41.20
2019-03-24T19:41:32.044Z,44.90
2019-03-24T19:44:00.778Z,44.80
2019-03-24T19:46:29.558Z,48.10
2019-03-24T19:48:58.269Z,45.30
2019-03-24T19:51:26.995Z,44.13
2019-03-24T19:53:55.453Z,44.27
2019-03-24T19:56:24.150Z,41.65
2019-03-24T19:58:52.589Z,42.53
2019-03-24T20:01:26.830Z,42.10
2019-03-24T20:03:55.277Z,45.17
2019-03-24T20:06:23.735Z,46.20
2019-03-24T20:08:52.174Z,45.95
2019-03-24T20:11:20.624Z,48.73
2019-03-24T20:13:49.060Z,47.23
2019-03-24T20:16:20.968Z,47.60
2019-03-24T20:18:49.395Z,46.75
2019-03-24T20:21:17.855Z,44.08
2019-03-24T20:23:46.295Z,46.40
2019-03-24T20:26:14.758Z,46.28
2019-03-24T20:28:43.252Z,43.95
2019-03-24T20:31:11.693Z,44.27
2019-03-24T20:33:40.153Z,45.75
2019-03-24T20:36:08.841Z,45.58
2019-03-24T20:38:37.560Z,44.95
2019-03-24T20:41:06.001Z,45.70
2019-03-24T20:43:49.807Z,45.52
2019-03-24T20:46:18.236Z,48.25
2019-03-24T20:48:46.685Z,43.65
2019-03-24T20:51:15.125Z,42.85
2019-03-24T20:53:43.582Z,43.08
2019-03-24T20:56:12.291Z,43.08
2019-03-24T20:58:42.392Z,43.75
2019-03-24T21:01:11.097Z,42.38
2019-03-24T21:03:39.562Z,41.95
2019-03-24T21:06:08.265Z,44.98
2019-03-24T21:08:36.991Z,45.33
2019-03-24T21:11:05.420Z,46.75
2019-03-24T21:13:33.895Z,44.93
2019-03-24T21:16:02.645Z,47.80
2019-03-24T21:18:31.080Z,45.28
2019-03-24T21:20:59.542Z,45.83
2019-03-24T21:23:29.721Z,43.02
2019-03-24T21:25:59.469Z,45.63
2019-03-24T21:28:28.169Z,41.18
2019-03-24T21:30:56.629Z,46.10
2019-03-24T21:33:25.332Z,41.10
2019-03-24T21:35:53.787Z,40.20
2019-03-24T21:38:22.482Z,40.75
2019-03-24T21:40:50.972Z,40.63
2019-03-24T21:43:19.404Z,42.50
2019-03-24T21:45:47.859Z,43.33
2019-03-24T21:48:16.560Z,45.23
2019-03-24T21:50:44.987Z,44.70
2019-03-24T21:53:13.724Z,43.63
2019-03-24T21:55:42.419Z,45.58
2019-03-24T21:58:10.872Z,45.28
2019-03-24T22:00:39.318Z,45.08
2019-03-24T22:03:08.179Z,47.00
2019-03-24T22:05:37.160Z,43.10
2019-03-24T22:08:07.774Z,46.05
2019-03-24T22:10:36.420Z,44.83
2019-03-24T22:13:05.317Z,42.17
2019-03-24T22:15:33.745Z,43.98
2019-03-24T22:18:02.538Z,48.17
2019-03-24T22:20:30.977Z,46.50
2019-03-24T22:23:08.679Z,47.78
2019-03-24T22:25:37.490Z,44.77
2019-03-24T22:28:06.036Z,40.35
2019-03-24T22:30:34.758Z,39.18
2019-03-24T22:33:03.655Z,40.60
2019-03-24T22:35:32.388Z,40.95
2019-03-24T22:38:00.842Z,43.80
2019-03-24T22:40:29.583Z,44.15
2019-03-24T22:42:58.266Z,42.60
2019-03-24T22:45:26.985Z,40.88
2019-03-24T22:47:55.435Z,38.55
2019-03-24T22:50:23.885Z,39.83
2019-03-24T22:52:52.585Z,39.78
2019-03-24T22:55:21.296Z,39.38
2019-03-24T22:57:50.002Z,39.73
2019-03-24T23:00:21.615Z,39.38
2019-03-24T23:02:50.048Z,42.60
2019-03-24T23:05:18.523Z,40.35
2019-03-24T23:07:46.963Z,43.10
2019-03-24T23:10:30.739Z,41.83
2019-03-24T23:12:59.424Z,43.28
2019-03-24T23:15:28.146Z,42.70
2019-03-24T23:17:56.947Z,43.33
2019-03-24T23:20:25.683Z,47.75
2019-03-24T23:22:54.138Z,46.08
2019-03-24T23:25:28.556Z,47.65
2019-03-24T23:27:57.238Z,48.73
2019-03-24T23:30:25.706Z,46.95
2019-03-24T23:32:54.153Z,45.83
2019-03-24T23:35:23.214Z,47.20
2019-03-24T23:37:51.641Z,45.05
2019-03-24T23:40:20.118Z,46.70
2019-03-24T23:42:48.621Z,47.43
2019-03-24T23:45:17.053Z,45.05
2019-03-24T23:47:45.522Z,46.30
2019-03-24T23:50:14.089Z,44.80
2019-03-24T23:52:42.548Z,45.78
2019-03-24T23:55:11.113Z,47.35
2019-03-24T23:57:39.835Z,45.85
